sensor_id;sensor_type;location;lat;lon;timestamp;pressure;altitude;pressure_sealevel;temperature;humidity
56689;BME280;42565;53.342;-1.534;2023-08-08T00:00:42;98896.66;;;12.47;70.60
56689;BME280;42565;53.342;-1.534;2023-08-08T00:03:09;98899.01;;;11.93;69.65
56689;BME280;42565;53.342;-1.534;2023-08-08T00:05:37;98892.80;;;12.49;69.92
56689;BME280;42565;53.342;-1.534;2023-08-08T00:08:05;98886.31;;;11.62;70.22
56689;BME280;42565;53.342;-1.534;2023-08-08T00:10:32;98898.92;;;12.20;71.23
56689;BME280;42565;53.342;-1.534;2023-08-08T00:12:59;98907.96;;;11.38;71.14
56689;BME280;42565;53.342;-1.534;2023-08-08T00:15:27;98906.24;;;12.40;69.85
56689;BME280;42565;53.342;-1.534;2023-08-08T00:17:54;98906.97;;;12.50;69.59
56689;BME280;42565;53.342;-1.534;2023-08-08T00:20:22;98908.86;;;12.83;66.85
56689;BME280;42565;53.342;-1.534;2023-08-08T00:22:48;98910.80;;;12.88;65.84
56689;BME280;42565;53.342;-1.534;2023-08-08T00:25:16;98912.68;;;12.53;66.73
56689;BME280;42565;53.342;-1.534;2023-08-08T00:27:43;98915.13;;;13.20;66.02
56689;BME280;42565;53.342;-1.534;2023-08-08T00:30:11;98914.62;;;12.60;65.41
56689;BME280;42565;53.342;-1.534;2023-08-08T00:32:39;98910.43;;;13.34;65.44
56689;BME280;42565;53.342;-1.534;2023-08-08T00:35:07;98907.68;;;13.04;64.62
56689;BME280;42565;53.342;-1.534;2023-08-08T00:37:35;98902.93;;;13.05;65.80
56689;BME280;42565;53.342;-1.534;2023-08-08T00:40:03;98903.17;;;12.76;65.35
56689;BME280;42565;53.342;-1.534;2023-08-08T00:42:30;98901.34;;;12.61;68.14
56689;BME280;42565;53.342;-1.534;2023-08-08T00:44:57;98903.11;;;12.85;67.49
56689;BME280;42565;53.342;-1.534;2023-08-08T00:47:24;98900.89;;;12.85;67.10
56689;BME280;42565;53.342;-1.534;2023-08-08T00:49:51;98901.13;;;12.85;67.93
56689;BME280;42565;53.342;-1.534;2023-08-08T00:52:19;98898.26;;;12.26;69.30
56689;BME280;42565;53.342;-1.534;2023-08-08T00:54:47;98897.01;;;12.56;68.84
56689;BME280;42565;53.342;-1.534;2023-08-08T00:57:14;98900.33;;;11.98;69.61
56689;BME280;42565;53.342;-1.534;2023-08-08T00:59:42;98904.07;;;12.50;68.88
56689;BME280;42565;53.342;-1.534;2023-08-08T01:02:08;98905.29;;;11.45;69.09
56689;BME280;42565;53.342;-1.534;2023-08-08T01:04:36;98905.43;;;12.53;68.84
56689;BME280;42565;53.342;-1.534;2023-08-08T01:07:08;98902.76;;;12.00;67.53
56689;BME280;42565;53.342;-1.534;2023-08-08T01:09:41;98900.78;;;12.38;68.36
56689;BME280;42565;53.342;-1.534;2023-08-08T01:12:13;98898.86;;;12.17;69.21
56689;BME280;42565;53.342;-1.534;2023-08-08T01:14:42;98896.05;;;12.31;69.52
56689;BME280;42565;53.342;-1.534;2023-08-08T01:17:10;98895.37;;;11.76;70.29
56689;BME280;42565;53.342;-1.534;2023-08-08T01:19:39;98894.57;;;12.37;69.83
56689;BME280;42565;53.342;-1.534;2023-08-08T01:22:14;98893.78;;;11.47;69.01
56689;BME280;42565;53.342;-1.534;2023-08-08T01:24:43;98895.80;;;12.56;69.20
56689;BME280;42565;53.342;-1.534;2023-08-08T01:27:11;98895.62;;;12.14;69.88
56689;BME280;42565;53.342;-1.534;2023-08-08T01:29:38;98896.28;;;12.41;70.20
56689;BME280;42565;53.342;-1.534;2023-08-08T01:32:06;98893.65;;;11.98;69.17
56689;BME280;42565;53.342;-1.534;2023-08-08T01:34:33;98892.01;;;12.48;69.27
56689;BME280;42565;53.342;-1.534;2023-08-08T01:37:06;98884.38;;;12.36;68.55
56689;BME280;42565;53.342;-1.534;2023-08-08T01:39:34;98885.56;;;12.81;68.65
56689;BME280;42565;53.342;-1.534;2023-08-08T01:42:01;98884.23;;;13.22;67.55
56689;BME280;42565;53.342;-1.534;2023-08-08T01:44:29;98887.25;;;13.28;68.38
56689;BME280;42565;53.342;-1.534;2023-08-08T01:46:58;98889.38;;;13.02;68.11
56689;BME280;42565;53.342;-1.534;2023-08-08T01:49:25;98890.53;;;12.73;67.10
56689;BME280;42565;53.342;-1.534;2023-08-08T01:51:52;98892.73;;;13.39;66.56
56689;BME280;42565;53.342;-1.534;2023-08-08T01:54:19;98894.07;;;13.36;65.91
56689;BME280;42565;53.342;-1.534;2023-08-08T01:56:46;98885.97;;;13.72;65.17
56689;BME280;42565;53.342;-1.534;2023-08-08T01:59:14;98887.14;;;13.43;66.23
56689;BME280;42565;53.342;-1.534;2023-08-08T02:01:42;98893.16;;;13.10;66.64
56689;BME280;42565;53.342;-1.534;2023-08-08T02:04:10;98889.58;;;13.07;65.00
56689;BME280;42565;53.342;-1.534;2023-08-08T02:06:37;98889.90;;;13.24;66.75
56689;BME280;42565;53.342;-1.534;2023-08-08T02:09:04;98889.99;;;12.81;66.11
56689;BME280;42565;53.342;-1.534;2023-08-08T02:11:31;98885.09;;;13.78;65.56
56689;BME280;42565;53.342;-1.534;2023-08-08T02:13:59;98884.24;;;13.20;66.14
56689;BME280;42565;53.342;-1.534;2023-08-08T02:16:26;98872.57;;;13.35;66.13
56689;BME280;42565;53.342;-1.534;2023-08-08T02:18:54;98867.51;;;14.10;65.84
56689;BME280;42565;53.342;-1.534;2023-08-08T02:21:21;98865.15;;;13.66;66.22
56689;BME280;42565;53.342;-1.534;2023-08-08T02:23:48;98861.70;;;13.76;65.72
56689;BME280;42565;53.342;-1.534;2023-08-08T02:26:15;98860.31;;;13.55;66.40
56689;BME280;42565;53.342;-1.534;2023-08-08T02:28:42;98865.95;;;13.57;67.79
56689;BME280;42565;53.342;-1.534;2023-08-08T02:31:10;98861.34;;;13.73;67.77
56689;BME280;42565;53.342;-1.534;2023-08-08T02:33:37;98860.18;;;13.74;67.40
56689;BME280;42565;53.342;-1.534;2023-08-08T02:36:05;98867.41;;;12.58;68.21
56689;BME280;42565;53.342;-1.534;2023-08-08T02:38:31;98859.22;;;13.76;66.80
56689;BME280;42565;53.342;-1.534;2023-08-08T02:40:59;98855.37;;;13.14;67.53
56689;BME280;42565;53.342;-1.534;2023-08-08T02:43:26;98855.66;;;13.06;68.30
56689;BME280;42565;53.342;-1.534;2023-08-08T02:45:53;98850.84;;;13.92;66.92
56689;BME280;42565;53.342;-1.534;2023-08-08T02:48:21;98847.14;;;12.78;68.27
56689;BME280;42565;53.342;-1.534;2023-08-08T02:50:47;98845.98;;;12.33;70.38
56689;BME280;42565;53.342;-1.534;2023-08-08T02:53:15;98841.55;;;12.52;71.05
56689;BME280;42565;53.342;-1.534;2023-08-08T02:55:43;98842.22;;;12.58;69.65
56689;BME280;42565;53.342;-1.534;2023-08-08T02:58:09;98843.07;;;12.64;67.34
56689;BME280;42565;53.342;-1.534;2023-08-08T03:00:36;98840.16;;;13.05;66.79
56689;BME280;42565;53.342;-1.534;2023-08-08T03:03:03;98836.12;;;12.68;66.24
56689;BME280;42565;53.342;-1.534;2023-08-08T03:05:31;98836.95;;;13.49;66.06
56689;BME280;42565;53.342;-1.534;2023-08-08T03:07:59;98845.03;;;13.15;66.67
56689;BME280;42565;53.342;-1.534;2023-08-08T03:10:26;98838.99;;;12.88;66.75
56689;BME280;42565;53.342;-1.534;2023-08-08T03:12:54;98836.64;;;13.54;66.47
56689;BME280;42565;53.342;-1.534;2023-08-08T03:15:21;98837.62;;;12.83;67.19
56689;BME280;42565;53.342;-1.534;2023-08-08T03:17:49;98838.33;;;13.23;67.01
56689;BME280;42565;53.342;-1.534;2023-08-08T03:20:16;98843.00;;;12.81;68.41
56689;BME280;42565;53.342;-1.534;2023-08-08T03:22:44;98839.68;;;12.91;68.09
56689;BME280;42565;53.342;-1.534;2023-08-08T03:25:11;98840.33;;;12.33;68.72
56689;BME280;42565;53.342;-1.534;2023-08-08T03:27:37;98830.12;;;12.86;68.68
56689;BME280;42565;53.342;-1.534;2023-08-08T03:30:06;98819.67;;;12.52;68.01
56689;BME280;42565;53.342;-1.534;2023-08-08T03:32:33;98820.94;;;12.87;67.80
56689;BME280;42565;53.342;-1.534;2023-08-08T03:35:00;98826.20;;;12.01;69.00
56689;BME280;42565;53.342;-1.534;2023-08-08T03:37:27;98825.21;;;12.83;67.97
56689;BME280;42565;53.342;-1.534;2023-08-08T03:39:55;98827.65;;;12.78;68.64
56689;BME280;42565;53.342;-1.534;2023-08-08T03:42:22;98825.44;;;13.17;67.88
56689;BME280;42565;53.342;-1.534;2023-08-08T03:44:49;98827.04;;;12.55;69.74
56689;BME280;42565;53.342;-1.534;2023-08-08T03:47:17;98824.19;;;12.46;68.18
56689;BME280;42565;53.342;-1.534;2023-08-08T03:49:44;98823.16;;;12.19;70.81
56689;BME280;42565;53.342;-1.534;2023-08-08T03:52:12;98824.98;;;11.94;70.02
56689;BME280;42565;53.342;-1.534;2023-08-08T03:54:40;98829.60;;;12.03;71.07
56689;BME280;42565;53.342;-1.534;2023-08-08T03:57:07;98830.04;;;11.26;70.91
56689;BME280;42565;53.342;-1.534;2023-08-08T03:59:34;98825.39;;;12.20;70.05
56689;BME280;42565;53.342;-1.534;2023-08-08T04:02:01;98820.94;;;12.56;69.90
56689;BME280;42565;53.342;-1.534;2023-08-08T04:04:29;98820.73;;;12.43;70.35
56689;BME280;42565;53.342;-1.534;2023-08-08T04:06:57;98818.19;;;12.16;70.44
56689;BME280;42565;53.342;-1.534;2023-08-08T04:09:24;98816.01;;;12.25;70.27
56689;BME280;42565;53.342;-1.534;2023-08-08T04:11:52;98814.81;;;11.94;71.61
56689;BME280;42565;53.342;-1.534;2023-08-08T04:14:19;98814.35;;;11.65;72.26
56689;BME280;42565;53.342;-1.534;2023-08-08T04:16:47;98805.54;;;11.97;71.74
56689;BME280;42565;53.342;-1.534;2023-08-08T04:19:13;98804.00;;;12.06;70.94
56689;BME280;42565;53.342;-1.534;2023-08-08T04:21:40;98807.45;;;12.76;68.86
56689;BME280;42565;53.342;-1.534;2023-08-08T04:24:07;98810.07;;;10.83;72.40
56689;BME280;42565;53.342;-1.534;2023-08-08T04:26:34;98807.13;;;11.69;72.85
56689;BME280;42565;53.342;-1.534;2023-08-08T04:29:01;98806.95;;;11.35;72.61
56689;BME280;42565;53.342;-1.534;2023-08-08T04:31:29;98805.98;;;11.82;72.81
56689;BME280;42565;53.342;-1.534;2023-08-08T04:33:56;98808.24;;;11.82;72.67
56689;BME280;42565;53.342;-1.534;2023-08-08T04:36:23;98806.64;;;11.88;73.61
56689;BME280;42565;53.342;-1.534;2023-08-08T04:38:50;98807.84;;;12.23;72.14
56689;BME280;42565;53.342;-1.534;2023-08-08T04:41:17;98804.81;;;11.85;72.87
56689;BME280;42565;53.342;-1.534;2023-08-08T04:43:44;98801.40;;;12.06;72.81
56689;BME280;42565;53.342;-1.534;2023-08-08T04:46:11;98802.82;;;11.36;73.65
56689;BME280;42565;53.342;-1.534;2023-08-08T04:48:38;98806.53;;;12.12;73.31
56689;BME280;42565;53.342;-1.534;2023-08-08T04:51:06;98811.08;;;11.52;72.30
56689;BME280;42565;53.342;-1.534;2023-08-08T04:53:33;98812.68;;;12.16;72.34
56689;BME280;42565;53.342;-1.534;2023-08-08T04:56:00;98810.82;;;11.97;71.23
56689;BME280;42565;53.342;-1.534;2023-08-08T04:58:28;98810.43;;;12.73;70.89
56689;BME280;42565;53.342;-1.534;2023-08-08T05:00:55;98814.66;;;12.55;71.80
56689;BME280;42565;53.342;-1.534;2023-08-08T05:03:23;98817.84;;;12.91;69.65
56689;BME280;42565;53.342;-1.534;2023-08-08T05:05:50;98815.79;;;13.37;69.03
56689;BME280;42565;53.342;-1.534;2023-08-08T05:08:18;98814.39;;;13.04;68.30
56689;BME280;42565;53.342;-1.534;2023-08-08T05:10:44;98820.74;;;12.70;70.23
56689;BME280;42565;53.342;-1.534;2023-08-08T05:13:13;98813.72;;;12.34;71.05
56689;BME280;42565;53.342;-1.534;2023-08-08T05:15:40;98819.29;;;12.59;72.76
56689;BME280;42565;53.342;-1.534;2023-08-08T05:18:07;98820.84;;;12.44;70.40
56689;BME280;42565;53.342;-1.534;2023-08-08T05:20:34;98819.66;;;13.54;68.57
56689;BME280;42565;53.342;-1.534;2023-08-08T05:23:01;98817.96;;;12.88;69.17
56689;BME280;42565;53.342;-1.534;2023-08-08T05:25:28;98818.77;;;12.52;72.28
56689;BME280;42565;53.342;-1.534;2023-08-08T05:27:56;98815.65;;;13.55;70.16
56689;BME280;42565;53.342;-1.534;2023-08-08T05:30:23;98810.79;;;13.20;70.44
56689;BME280;42565;53.342;-1.534;2023-08-08T05:32:51;98802.30;;;13.92;69.72
56689;BME280;42565;53.342;-1.534;2023-08-08T05:35:17;98800.00;;;13.17;70.61
56689;BME280;42565;53.342;-1.534;2023-08-08T05:37:45;98794.86;;;13.05;72.57
56689;BME280;42565;53.342;-1.534;2023-08-08T05:40:13;98797.71;;;13.31;70.50
56689;BME280;42565;53.342;-1.534;2023-08-08T05:42:40;98793.32;;;13.62;70.13
56689;BME280;42565;53.342;-1.534;2023-08-08T05:45:08;98793.70;;;13.12;70.19
56689;BME280;42565;53.342;-1.534;2023-08-08T05:47:36;98795.79;;;13.56;70.11
56689;BME280;42565;53.342;-1.534;2023-08-08T05:50:03;98799.57;;;14.21;68.42
56689;BME280;42565;53.342;-1.534;2023-08-08T05:52:31;98799.36;;;14.25;68.67
56689;BME280;42565;53.342;-1.534;2023-08-08T05:54:58;98798.24;;;13.68;68.89
56689;BME280;42565;53.342;-1.534;2023-08-08T05:57:26;98800.49;;;14.04;68.39
56689;BME280;42565;53.342;-1.534;2023-08-08T05:59:53;98799.30;;;14.36;68.35
56689;BME280;42565;53.342;-1.534;2023-08-08T06:02:21;98802.45;;;14.37;68.44
56689;BME280;42565;53.342;-1.534;2023-08-08T06:04:48;98800.20;;;14.33;68.86
56689;BME280;42565;53.342;-1.534;2023-08-08T06:07:15;98795.10;;;13.80;69.40
56689;BME280;42565;53.342;-1.534;2023-08-08T06:09:41;98792.47;;;13.76;71.90
56689;BME280;42565;53.342;-1.534;2023-08-08T06:12:09;98799.47;;;12.84;72.58
56689;BME280;42565;53.342;-1.534;2023-08-08T06:14:36;98794.79;;;13.99;72.31
56689;BME280;42565;53.342;-1.534;2023-08-08T06:17:03;98794.60;;;13.29;71.83
56689;BME280;42565;53.342;-1.534;2023-08-08T06:19:31;98792.30;;;14.05;70.82
56689;BME280;42565;53.342;-1.534;2023-08-08T06:21:58;98787.70;;;15.15;67.76
56689;BME280;42565;53.342;-1.534;2023-08-08T06:24:25;98786.16;;;14.90;67.03
56689;BME280;42565;53.342;-1.534;2023-08-08T06:26:53;98789.05;;;15.42;66.39
56689;BME280;42565;53.342;-1.534;2023-08-08T06:29:20;98790.86;;;14.67;66.78
56689;BME280;42565;53.342;-1.534;2023-08-08T06:31:48;98793.46;;;15.25;66.22
56689;BME280;42565;53.342;-1.534;2023-08-08T06:34:15;98788.20;;;14.75;65.67
56689;BME280;42565;53.342;-1.534;2023-08-08T06:36:43;98800.79;;;14.85;67.52
56689;BME280;42565;53.342;-1.534;2023-08-08T06:39:10;98800.36;;;14.66;66.75
56689;BME280;42565;53.342;-1.534;2023-08-08T06:41:38;98801.64;;;14.57;67.70
56689;BME280;42565;53.342;-1.534;2023-08-08T06:44:07;98800.59;;;14.62;67.78
56689;BME280;42565;53.342;-1.534;2023-08-08T06:46:35;98793.86;;;14.17;69.85
56689;BME280;42565;53.342;-1.534;2023-08-08T06:49:02;98793.48;;;13.89;69.38
56689;BME280;42565;53.342;-1.534;2023-08-08T06:51:29;98790.62;;;14.36;70.44
56689;BME280;42565;53.342;-1.534;2023-08-08T06:53:57;98794.10;;;14.71;69.78
56689;BME280;42565;53.342;-1.534;2023-08-08T06:56:24;98796.48;;;14.28;70.34
56689;BME280;42565;53.342;-1.534;2023-08-08T06:58:52;98793.86;;;14.65;70.39
56689;BME280;42565;53.342;-1.534;2023-08-08T07:01:19;98796.84;;;14.80;69.13
56689;BME280;42565;53.342;-1.534;2023-08-08T07:03:47;98797.36;;;14.87;69.08
56689;BME280;42565;53.342;-1.534;2023-08-08T07:06:14;98797.51;;;14.91;67.94
56689;BME280;42565;53.342;-1.534;2023-08-08T07:08:42;98800.02;;;15.30;68.01
56689;BME280;42565;53.342;-1.534;2023-08-08T07:11:09;98806.02;;;15.25;67.76
56689;BME280;42565;53.342;-1.534;2023-08-08T07:13:36;98799.66;;;15.57;67.21
56689;BME280;42565;53.342;-1.534;2023-08-08T07:16:03;98798.34;;;14.70;66.81
56689;BME280;42565;53.342;-1.534;2023-08-08T07:18:30;98796.77;;;15.55;66.10
56689;BME280;42565;53.342;-1.534;2023-08-08T07:20:57;98796.05;;;14.88;67.62
56689;BME280;42565;53.342;-1.534;2023-08-08T07:23:24;98795.76;;;15.11;67.83
56689;BME280;42565;53.342;-1.534;2023-08-08T07:25:51;98799.32;;;14.98;67.90
56689;BME280;42565;53.342;-1.534;2023-08-08T07:28:19;98794.59;;;15.51;66.98
56689;BME280;42565;53.342;-1.534;2023-08-08T07:30:46;98798.04;;;15.15;67.30
56689;BME280;42565;53.342;-1.534;2023-08-08T07:33:13;98805.47;;;14.85;67.94
56689;BME280;42565;53.342;-1.534;2023-08-08T07:35:40;98803.71;;;15.85;66.78
56689;BME280;42565;53.342;-1.534;2023-08-08T07:38:07;98797.32;;;14.70;66.89
56689;BME280;42565;53.342;-1.534;2023-08-08T07:40:34;98795.12;;;15.68;66.73
56689;BME280;42565;53.342;-1.534;2023-08-08T07:43:03;98802.13;;;15.46;65.57
56689;BME280;42565;53.342;-1.534;2023-08-08T07:45:30;98790.37;;;16.30;65.35
56689;BME280;42565;53.342;-1.534;2023-08-08T07:47:56;98790.06;;;15.68;66.46
56689;BME280;42565;53.342;-1.534;2023-08-08T07:50:23;98801.59;;;15.43;66.78
56689;BME280;42565;53.342;-1.534;2023-08-08T07:52:51;98801.23;;;15.87;65.69
56689;BME280;42565;53.342;-1.534;2023-08-08T07:55:18;98799.92;;;16.03;64.12
56689;BME280;42565;53.342;-1.534;2023-08-08T07:57:46;98803.20;;;15.73;66.92
56689;BME280;42565;53.342;-1.534;2023-08-08T08:00:14;98803.14;;;15.53;67.31
56689;BME280;42565;53.342;-1.534;2023-08-08T08:02:43;98804.61;;;15.96;66.08
56689;BME280;42565;53.342;-1.534;2023-08-08T08:05:12;98800.61;;;15.01;66.42
56689;BME280;42565;53.342;-1.534;2023-08-08T08:07:40;98798.71;;;15.40;66.89
56689;BME280;42565;53.342;-1.534;2023-08-08T08:10:09;98797.65;;;15.57;65.06
56689;BME280;42565;53.342;-1.534;2023-08-08T08:12:37;98789.21;;;16.04;64.94
56689;BME280;42565;53.342;-1.534;2023-08-08T08:15:04;98788.61;;;15.61;63.83
56689;BME280;42565;53.342;-1.534;2023-08-08T08:17:32;98785.66;;;17.15;61.77
56689;BME280;42565;53.342;-1.534;2023-08-08T08:20:00;98782.44;;;17.05;59.74
56689;BME280;42565;53.342;-1.534;2023-08-08T08:22:27;98782.17;;;17.59;59.10
56689;BME280;42565;53.342;-1.534;2023-08-08T08:24:55;98785.77;;;17.33;59.06
56689;BME280;42565;53.342;-1.534;2023-08-08T08:27:22;98785.26;;;16.59;60.23
56689;BME280;42565;53.342;-1.534;2023-08-08T08:29:50;98787.38;;;17.62;60.03
56689;BME280;42565;53.342;-1.534;2023-08-08T08:32:17;98786.96;;;17.22;59.84
56689;BME280;42565;53.342;-1.534;2023-08-08T08:34:45;98787.67;;;18.22;59.73
56689;BME280;42565;53.342;-1.534;2023-08-08T08:37:11;98787.16;;;17.19;59.89
56689;BME280;42565;53.342;-1.534;2023-08-08T08:39:38;98783.31;;;18.07;58.47
56689;BME280;42565;53.342;-1.534;2023-08-08T08:42:07;98768.82;;;17.58;58.09
56689;BME280;42565;53.342;-1.534;2023-08-08T08:44:36;98768.49;;;17.98;57.80
56689;BME280;42565;53.342;-1.534;2023-08-08T08:47:05;98761.34;;;17.45;56.77
56689;BME280;42565;53.342;-1.534;2023-08-08T08:49:35;98765.45;;;18.97;56.75
56689;BME280;42565;53.342;-1.534;2023-08-08T08:52:05;98765.70;;;18.72;54.02
56689;BME280;42565;53.342;-1.534;2023-08-08T08:54:32;98777.54;;;19.83;53.99
56689;BME280;42565;53.342;-1.534;2023-08-08T08:57:00;98769.91;;;18.76;53.46
56689;BME280;42565;53.342;-1.534;2023-08-08T08:59:27;98769.43;;;19.09;54.69
56689;BME280;42565;53.342;-1.534;2023-08-08T09:01:55;98766.79;;;18.31;56.40
56689;BME280;42565;53.342;-1.534;2023-08-08T09:04:23;98766.95;;;18.30;56.37
56689;BME280;42565;53.342;-1.534;2023-08-08T09:06:51;98764.30;;;19.06;55.91
56689;BME280;42565;53.342;-1.534;2023-08-08T09:09:18;98763.28;;;19.11;54.23
56689;BME280;42565;53.342;-1.534;2023-08-08T09:11:47;98763.87;;;19.25;53.72
56689;BME280;42565;53.342;-1.534;2023-08-08T09:14:17;98758.80;;;18.79;53.03
56689;BME280;42565;53.342;-1.534;2023-08-08T09:16:46;98760.44;;;19.26;53.01
56689;BME280;42565;53.342;-1.534;2023-08-08T09:19:13;98756.62;;;18.87;54.89
56689;BME280;42565;53.342;-1.534;2023-08-08T09:21:41;98756.93;;;19.34;54.16
56689;BME280;42565;53.342;-1.534;2023-08-08T09:24:08;98755.02;;;19.06;53.39
56689;BME280;42565;53.342;-1.534;2023-08-08T09:26:36;98752.93;;;19.02;53.31
56689;BME280;42565;53.342;-1.534;2023-08-08T09:29:04;98751.20;;;19.15;53.14
56689;BME280;42565;53.342;-1.534;2023-08-08T09:31:34;98750.95;;;19.11;52.96
56689;BME280;42565;53.342;-1.534;2023-08-08T09:34:03;98747.68;;;18.57;52.79
56689;BME280;42565;53.342;-1.534;2023-08-08T09:36:31;98748.96;;;19.54;51.52
56689;BME280;42565;53.342;-1.534;2023-08-08T09:38:58;98745.15;;;18.84;52.44
56689;BME280;42565;53.342;-1.534;2023-08-08T09:41:26;98736.86;;;18.65;54.40
56689;BME280;42565;53.342;-1.534;2023-08-08T09:43:54;98744.58;;;19.26;51.16
56689;BME280;42565;53.342;-1.534;2023-08-08T09:46:22;98743.86;;;18.72;51.98
56689;BME280;42565;53.342;-1.534;2023-08-08T09:48:55;98745.06;;;19.44;53.05
56689;BME280;42565;53.342;-1.534;2023-08-08T09:51:23;98747.62;;;19.33;52.17
56689;BME280;42565;53.342;-1.534;2023-08-08T09:53:50;98748.99;;;19.92;51.55
56689;BME280;42565;53.342;-1.534;2023-08-08T09:56:18;98747.55;;;19.12;51.84
56689;BME280;42565;53.342;-1.534;2023-08-08T09:58:46;98747.29;;;20.53;51.29
56689;BME280;42565;53.342;-1.534;2023-08-08T10:01:14;98738.86;;;19.53;50.45
56689;BME280;42565;53.342;-1.534;2023-08-08T10:03:41;98740.42;;;18.75;52.31
56689;BME280;42565;53.342;-1.534;2023-08-08T10:06:09;98736.61;;;18.17;52.85
56689;BME280;42565;53.342;-1.534;2023-08-08T10:08:37;98738.96;;;19.23;53.66
56689;BME280;42565;53.342;-1.534;2023-08-08T10:11:05;98743.94;;;19.32;53.17
56689;BME280;42565;53.342;-1.534;2023-08-08T10:13:35;98744.38;;;19.18;54.23
56689;BME280;42565;53.342;-1.534;2023-08-08T10:16:07;98741.74;;;18.35;55.24
56689;BME280;42565;53.342;-1.534;2023-08-08T10:18:34;98743.06;;;19.58;52.58
56689;BME280;42565;53.342;-1.534;2023-08-08T10:21:04;98742.38;;;18.49;53.90
56689;BME280;42565;53.342;-1.534;2023-08-08T10:23:36;98745.44;;;19.47;52.34
56689;BME280;42565;53.342;-1.534;2023-08-08T10:26:04;98754.65;;;19.95;50.25
56689;BME280;42565;53.342;-1.534;2023-08-08T10:28:32;98761.07;;;20.01;51.23
56689;BME280;42565;53.342;-1.534;2023-08-08T10:31:01;98760.89;;;19.16;51.11
56689;BME280;42565;53.342;-1.534;2023-08-08T10:33:39;98770.80;;;20.08;50.33
56689;BME280;42565;53.342;-1.534;2023-08-08T10:36:07;98772.05;;;19.22;50.86
56689;BME280;42565;53.342;-1.534;2023-08-08T10:38:44;98771.60;;;19.47;52.18
56689;BME280;42565;53.342;-1.534;2023-08-08T10:41:12;98766.93;;;18.67;51.85
56689;BME280;42565;53.342;-1.534;2023-08-08T10:43:48;98757.40;;;19.27;53.01
56689;BME280;42565;53.342;-1.534;2023-08-08T10:46:23;98753.61;;;19.03;52.57
56689;BME280;42565;53.342;-1.534;2023-08-08T10:48:51;98747.13;;;19.12;52.09
56689;BME280;42565;53.342;-1.534;2023-08-08T10:51:18;98739.72;;;18.83;50.41
56689;BME280;42565;53.342;-1.534;2023-08-08T10:53:46;98737.52;;;19.09;49.44
56689;BME280;42565;53.342;-1.534;2023-08-08T10:56:14;98732.35;;;19.27;49.43
56689;BME280;42565;53.342;-1.534;2023-08-08T10:58:42;98733.20;;;19.36;50.46
56689;BME280;42565;53.342;-1.534;2023-08-08T11:01:14;98737.43;;;19.01;51.05
56689;BME280;42565;53.342;-1.534;2023-08-08T11:03:42;98736.00;;;19.41;51.04
56689;BME280;42565;53.342;-1.534;2023-08-08T11:06:10;98731.21;;;19.25;49.89
56689;BME280;42565;53.342;-1.534;2023-08-08T11:08:37;98721.73;;;19.51;50.45
56689;BME280;42565;53.342;-1.534;2023-08-08T11:11:05;98719.52;;;18.71;50.78
56689;BME280;42565;53.342;-1.534;2023-08-08T11:13:33;98723.76;;;19.43;50.32
56689;BME280;42565;53.342;-1.534;2023-08-08T11:16:01;98723.98;;;19.32;49.80
56689;BME280;42565;53.342;-1.534;2023-08-08T11:18:28;98726.30;;;19.85;48.94
56689;BME280;42565;53.342;-1.534;2023-08-08T11:20:56;98727.53;;;20.01;50.02
56689;BME280;42565;53.342;-1.534;2023-08-08T11:23:23;98727.88;;;18.54;52.26
56689;BME280;42565;53.342;-1.534;2023-08-08T11:25:50;98735.51;;;18.93;52.67
56689;BME280;42565;53.342;-1.534;2023-08-08T11:28:18;98738.55;;;18.08;53.32
56689;BME280;42565;53.342;-1.534;2023-08-08T11:30:45;98734.61;;;18.73;53.24
56689;BME280;42565;53.342;-1.534;2023-08-08T11:33:14;98727.66;;;17.57;55.55
56689;BME280;42565;53.342;-1.534;2023-08-08T11:35:44;98726.69;;;18.19;55.21
56689;BME280;42565;53.342;-1.534;2023-08-08T11:38:11;98729.41;;;17.81;55.06
56689;BME280;42565;53.342;-1.534;2023-08-08T11:40:40;98722.61;;;17.93;55.32
56689;BME280;42565;53.342;-1.534;2023-08-08T11:43:08;98726.53;;;17.63;55.48
56689;BME280;42565;53.342;-1.534;2023-08-08T11:45:35;98729.59;;;17.72;58.37
56689;BME280;42565;53.342;-1.534;2023-08-08T11:48:02;98729.26;;;16.83;58.92
56689;BME280;42565;53.342;-1.534;2023-08-08T11:50:30;98719.34;;;17.88;57.60
56689;BME280;42565;53.342;-1.534;2023-08-08T11:52:58;98710.09;;;17.62;56.90
56689;BME280;42565;53.342;-1.534;2023-08-08T11:55:29;98702.71;;;17.97;56.05
56689;BME280;42565;53.342;-1.534;2023-08-08T11:57:57;98714.42;;;18.41;57.22
56689;BME280;42565;53.342;-1.534;2023-08-08T12:00:27;98708.68;;;17.88;57.92
56689;BME280;42565;53.342;-1.534;2023-08-08T12:02:54;98708.03;;;18.20;58.06
56689;BME280;42565;53.342;-1.534;2023-08-08T12:05:22;98707.99;;;18.73;55.68
56689;BME280;42565;53.342;-1.534;2023-08-08T12:07:51;98705.62;;;18.86;56.37
56689;BME280;42565;53.342;-1.534;2023-08-08T12:10:19;98694.77;;;19.33;55.96
56689;BME280;42565;53.342;-1.534;2023-08-08T12:12:52;98693.77;;;19.26;52.23
56689;BME280;42565;53.342;-1.534;2023-08-08T12:15:20;98687.82;;;19.90;49.83
56689;BME280;42565;53.342;-1.534;2023-08-08T12:17:47;98683.48;;;19.96;51.54
56689;BME280;42565;53.342;-1.534;2023-08-08T12:20:15;98687.14;;;20.16;49.66
56689;BME280;42565;53.342;-1.534;2023-08-08T12:22:43;98686.37;;;20.22;50.70
56689;BME280;42565;53.342;-1.534;2023-08-08T12:25:11;98694.92;;;19.02;53.63
56689;BME280;42565;53.342;-1.534;2023-08-08T12:27:38;98691.57;;;18.62;55.15
56689;BME280;42565;53.342;-1.534;2023-08-08T12:30:08;98687.48;;;18.50;54.01
56689;BME280;42565;53.342;-1.534;2023-08-08T12:32:35;98693.09;;;18.79;55.12
56689;BME280;42565;53.342;-1.534;2023-08-08T12:35:03;98697.62;;;18.30;54.75
56689;BME280;42565;53.342;-1.534;2023-08-08T12:37:31;98694.39;;;19.54;54.58
56689;BME280;42565;53.342;-1.534;2023-08-08T12:39:58;98690.99;;;19.26;54.03
56689;BME280;42565;53.342;-1.534;2023-08-08T12:42:25;98692.55;;;18.42;56.40
56689;BME280;42565;53.342;-1.534;2023-08-08T12:44:53;98697.90;;;18.99;55.86
56689;BME280;42565;53.342;-1.534;2023-08-08T12:47:21;98692.42;;;19.20;53.30
56689;BME280;42565;53.342;-1.534;2023-08-08T12:49:48;98691.70;;;19.85;53.01
56689;BME280;42565;53.342;-1.534;2023-08-08T12:52:16;98687.24;;;19.79;51.61